sensor_id;sensor_type;location;lat;lon;timestamp;temperature;humidity
14934;DHT22;7560;51.364;12.384;2024-03-25T00:02:47;6.10;99.90
14934;DHT22;7560;51.364;12.384;2024-03-25T00:07:49;5.70;99.90
14934;DHT22;7560;51.364;12.384;2024-03-25T00:12:49;5.60;99.90
14934;DHT22;7560;51.364;12.384;2024-03-25T00:17:53;5.60;99.90
14934;DHT22;7560;51.364;12.384;2024-03-25T00:22:53;5.70;99.90
14934;DHT22;7560;51.364;12.384;2024-03-25T00:27:55;5.80;99.90
14934;DHT22;7560;51.364;12.384;2024-03-25T00:32:55;5.90;99.90
14934;DHT22;7560;51.364;12.384;2024-03-25T00:37:56;6.00;99.90
14934;DHT22;7560;51.364;12.384;2024-03-25T00:42:57;6.10;99.90
14934;DHT22;7560;51.364;12.384;2024-03-25T00:47:58;6.10;99.90
14934;DHT22;7560;51.364;12.384;2024-03-25T00:53:00;6.10;99.90
14934;DHT22;7560;51.364;12.384;2024-03-25T00:58:04;6.20;99.90
14934;DHT22;7560;51.364;12.384;2024-03-25T01:03:04;6.20;99.90
14934;DHT22;7560;51.364;12.384;2024-03-25T01:08:05;6.20;99.90
14934;DHT22;7560;51.364;12.384;2024-03-25T01:13:06;6.20;99.90
14934;DHT22;7560;51.364;12.384;2024-03-25T01:18:07;6.30;99.90
14934;DHT22;7560;51.364;12.384;2024-03-25T01:23:08;6.30;99.90
14934;DHT22;7560;51.364;12.384;2024-03-25T01:28:09;6.40;99.90
14934;DHT22;7560;51.364;12.384;2024-03-25T01:33:10;6.30;99.90
14934;DHT22;7560;51.364;12.384;2024-03-25T01:38:11;6.40;99.90
14934;DHT22;7560;51.364;12.384;2024-03-25T01:43:12;6.40;99.90
14934;DHT22;7560;51.364;12.384;2024-03-25T01:48:13;6.40;99.90
14934;DHT22;7560;51.364;12.384;2024-03-25T01:53:14;6.40;99.90
14934;DHT22;7560;51.364;12.384;2024-03-25T01:58:15;6.50;99.90
14934;DHT22;7560;51.364;12.384;2024-03-25T02:03:16;6.40;99.90
14934;DHT22;7560;51.364;12.384;2024-03-25T02:08:17;6.30;99.90
14934;DHT22;7560;51.364;12.384;2024-03-25T02:13:19;6.40;99.90
14934;DHT22;7560;51.364;12.384;2024-03-25T02:18:20;6.40;99.90
14934;DHT22;7560;51.364;12.384;2024-03-25T02:23:21;6.40;99.90
14934;DHT22;7560;51.364;12.384;2024-03-25T02:28:22;6.40;99.90
14934;DHT22;7560;51.364;12.384;2024-03-25T02:33:23;6.40;99.90
14934;DHT22;7560;51.364;12.384;2024-03-25T02:38:24;6.30;99.90
14934;DHT22;7560;51.364;12.384;2024-03-25T02:43:25;6.30;99.90
14934;DHT22;7560;51.364;12.384;2024-03-25T02:48:26;6.10;99.90
14934;DHT22;7560;51.364;12.384;2024-03-25T02:53:27;6.00;99.90
14934;DHT22;7560;51.364;12.384;2024-03-25T02:58:28;6.00;99.90
14934;DHT22;7560;51.364;12.384;2024-03-25T03:03:29;6.10;99.90
14934;DHT22;7560;51.364;12.384;2024-03-25T03:08:29;6.10;99.90
14934;DHT22;7560;51.364;12.384;2024-03-25T03:13:30;6.20;99.90
14934;DHT22;7560;51.364;12.384;2024-03-25T03:18:31;6.20;99.90
14934;DHT22;7560;51.364;12.384;2024-03-25T03:23:32;6.30;99.90
14934;DHT22;7560;51.364;12.384;2024-03-25T03:28:32;6.30;99.90
14934;DHT22;7560;51.364;12.384;2024-03-25T03:33:33;6.30;99.90
14934;DHT22;7560;51.364;12.384;2024-03-25T03:38:34;6.20;99.90
14934;DHT22;7560;51.364;12.384;2024-03-25T03:43:35;6.20;99.90
14934;DHT22;7560;51.364;12.384;2024-03-25T03:48:36;6.20;99.90
14934;DHT22;7560;51.364;12.384;2024-03-25T03:53:38;6.20;99.90
14934;DHT22;7560;51.364;12.384;2024-03-25T03:58:39;6.20;99.90
14934;DHT22;7560;51.364;12.384;2024-03-25T04:03:40;6.10;99.90
14934;DHT22;7560;51.364;12.384;2024-03-25T04:08:41;6.10;99.90
14934;DHT22;7560;51.364;12.384;2024-03-25T04:13:42;6.00;99.90
14934;DHT22;7560;51.364;12.384;2024-03-25T04:18:44;5.90;99.90
14934;DHT22;7560;51.364;12.384;2024-03-25T04:23:44;5.80;99.90
14934;DHT22;7560;51.364;12.384;2024-03-25T04:28:45;5.90;99.90
14934;DHT22;7560;51.364;12.384;2024-03-25T04:33:46;6.00;99.90
14934;DHT22;7560;51.364;12.384;2024-03-25T04:38:47;6.00;99.90
14934;DHT22;7560;51.364;12.384;2024-03-25T04:43:48;5.90;99.90
14934;DHT22;7560;51.364;12.384;2024-03-25T04:48:49;5.90;99.90
14934;DHT22;7560;51.364;12.384;2024-03-25T04:53:50;5.90;99.90
14934;DHT22;7560;51.364;12.384;2024-03-25T04:58:50;5.90;99.90
14934;DHT22;7560;51.364;12.384;2024-03-25T05:03:51;6.00;99.90
14934;DHT22;7560;51.364;12.384;2024-03-25T05:08:52;6.00;99.90
14934;DHT22;7560;51.364;12.384;2024-03-25T05:13:53;6.00;99.90
14934;DHT22;7560;51.364;12.384;2024-03-25T05:18:54;6.00;99.90
14934;DHT22;7560;51.364;12.384;2024-03-25T05:23:54;6.00;99.90
14934;DHT22;7560;51.364;12.384;2024-03-25T05:28:56;6.00;99.90
14934;DHT22;7560;51.364;12.384;2024-03-25T05:33:57;6.10;99.90
14934;DHT22;7560;51.364;12.384;2024-03-25T05:39:00;6.10;99.90
14934;DHT22;7560;51.364;12.384;2024-03-25T05:44:01;6.10;99.90
14934;DHT22;7560;51.364;12.384;2024-03-25T05:49:05;6.10;99.90
14934;DHT22;7560;51.364;12.384;2024-03-25T05:54:06;6.20;99.90
14934;DHT22;7560;51.364;12.384;2024-03-25T05:59:06;6.20;99.90
14934;DHT22;7560;51.364;12.384;2024-03-25T06:04:07;6.20;99.90
14934;DHT22;7560;51.364;12.384;2024-03-25T06:09:08;6.30;99.90
14934;DHT22;7560;51.364;12.384;2024-03-25T06:14:10;6.40;99.90
14934;DHT22;7560;51.364;12.384;2024-03-25T06:19:10;6.40;99.90
14934;DHT22;7560;51.364;12.384;2024-03-25T06:24:11;6.50;99.90
14934;DHT22;7560;51.364;12.384;2024-03-25T06:29:12;6.50;99.90
14934;DHT22;7560;51.364;12.384;2024-03-25T06:34:13;6.60;99.90
14934;DHT22;7560;51.364;12.384;2024-03-25T06:39:22;6.70;99.90
14934;DHT22;7560;51.364;12.384;2024-03-25T06:44:23;6.70;99.90
14934;DHT22;7560;51.364;12.384;2024-03-25T06:49:25;6.70;99.90
14934;DHT22;7560;51.364;12.384;2024-03-25T06:54:26;6.80;99.90
14934;DHT22;7560;51.364;12.384;2024-03-25T06:59:27;7.00;99.90
14934;DHT22;7560;51.364;12.384;2024-03-25T07:04:28;7.20;99.90
14934;DHT22;7560;51.364;12.384;2024-03-25T07:09:28;7.30;99.90
14934;DHT22;7560;51.364;12.384;2024-03-25T07:14:30;7.40;99.90
14934;DHT22;7560;51.364;12.384;2024-03-25T07:19:31;7.40;99.90
14934;DHT22;7560;51.364;12.384;2024-03-25T07:24:32;7.50;99.90
14934;DHT22;7560;51.364;12.384;2024-03-25T07:29:33;7.60;99.90
14934;DHT22;7560;51.364;12.384;2024-03-25T07:34:33;7.80;99.90
14934;DHT22;7560;51.364;12.384;2024-03-25T07:39:34;7.90;99.90
14934;DHT22;7560;51.364;12.384;2024-03-25T07:44:35;7.80;99.90
14934;DHT22;7560;51.364;12.384;2024-03-25T07:49:36;7.90;99.90
14934;DHT22;7560;51.364;12.384;2024-03-25T07:54:37;7.90;99.90
14934;DHT22;7560;51.364;12.384;2024-03-25T07:59:38;8.10;99.90
14934;DHT22;7560;51.364;12.384;2024-03-25T08:04:39;8.30;99.90
14934;DHT22;7560;51.364;12.384;2024-03-25T08:09:40;8.30;99.90
14934;DHT22;7560;51.364;12.384;2024-03-25T08:14:42;8.50;99.90
14934;DHT22;7560;51.364;12.384;2024-03-25T08:19:44;8.70;99.90
14934;DHT22;7560;51.364;12.384;2024-03-25T08:24:45;8.70;99.90
14934;DHT22;7560;51.364;12.384;2024-03-25T08:29:46;9.00;99.90
14934;DHT22;7560;51.364;12.384;2024-03-25T08:34:46;9.10;99.90
14934;DHT22;7560;51.364;12.384;2024-03-25T08:39:47;8.80;99.90
14934;DHT22;7560;51.364;12.384;2024-03-25T08:44:48;8.70;99.90
14934;DHT22;7560;51.364;12.384;2024-03-25T08:49:49;8.80;99.90
14934;DHT22;7560;51.364;12.384;2024-03-25T08:54:50;9.00;99.90
14934;DHT22;7560;51.364;12.384;2024-03-25T08:59:50;9.20;99.90
14934;DHT22;7560;51.364;12.384;2024-03-25T09:04:51;9.00;99.90
14934;DHT22;7560;51.364;12.384;2024-03-25T09:09:53;9.10;99.90
14934;DHT22;7560;51.364;12.384;2024-03-25T09:15:12;9.50;99.90
14934;DHT22;7560;51.364;12.384;2024-03-25T09:20:15;9.30;99.90
14934;DHT22;7560;51.364;12.384;2024-03-25T09:25:21;9.40;99.90
14934;DHT22;7560;51.364;12.384;2024-03-25T09:30:21;8.50;99.90
14934;DHT22;7560;51.364;12.384;2024-03-25T09:35:22;8.40;99.90
14934;DHT22;7560;51.364;12.384;2024-03-25T09:40:24;8.20;99.90
14934;DHT22;7560;51.364;12.384;2024-03-25T09:45:25;8.20;99.90
14934;DHT22;7560;51.364;12.384;2024-03-25T09:50:28;8.50;99.90
14934;DHT22;7560;51.364;12.384;2024-03-25T09:55:29;9.10;99.90
14934;DHT22;7560;51.364;12.384;2024-03-25T10:00:30;9.60;99.90
14934;DHT22;7560;51.364;12.384;2024-03-25T10:05:31;9.60;99.90
14934;DHT22;7560;51.364;12.384;2024-03-25T10:10:34;9.50;99.90
14934;DHT22;7560;51.364;12.384;2024-03-25T10:15:35;9.60;99.90
14934;DHT22;7560;51.364;12.384;2024-03-25T10:20:36;9.40;99.90
14934;DHT22;7560;51.364;12.384;2024-03-25T10:25:37;9.60;99.90
14934;DHT22;7560;51.364;12.384;2024-03-25T10:30:38;10.30;99.90
14934;DHT22;7560;51.364;12.384;2024-03-25T10:35:39;11.10;99.90
14934;DHT22;7560;51.364;12.384;2024-03-25T10:40:40;10.40;99.90
14934;DHT22;7560;51.364;12.384;2024-03-25T10:45:45;10.20;99.90
14934;DHT22;7560;51.364;12.384;2024-03-25T10:50:47;10.10;99.90
14934;DHT22;7560;51.364;12.384;2024-03-25T10:55:52;10.00;99.90
14934;DHT22;7560;51.364;12.384;2024-03-25T11:00:54;10.00;99.90
14934;DHT22;7560;51.364;12.384;2024-03-25T11:05:57;10.10;99.90
14934;DHT22;7560;51.364;12.384;2024-03-25T11:10:58;10.70;99.90
14934;DHT22;7560;51.364;12.384;2024-03-25T11:15:59;10.90;99.90
14934;DHT22;7560;51.364;12.384;2024-03-25T11:21:05;10.90;99.90
14934;DHT22;7560;51.364;12.384;2024-03-25T11:26:20;10.80;99.90
14934;DHT22;7560;51.364;12.384;2024-03-25T11:31:21;10.90;99.90
14934;DHT22;7560;51.364;12.384;2024-03-25T11:36:25;11.40;99.90
14934;DHT22;7560;51.364;12.384;2024-03-25T11:41:26;11.40;99.90
14934;DHT22;7560;51.364;12.384;2024-03-25T11:46:27;11.40;99.90
14934;DHT22;7560;51.364;12.384;2024-03-25T11:51:28;11.40;99.90
14934;DHT22;7560;51.364;12.384;2024-03-25T11:56:28;11.60;99.90
14934;DHT22;7560;51.364;12.384;2024-03-25T12:01:30;10.90;99.90
14934;DHT22;7560;51.364;12.384;2024-03-25T12:06:31;10.80;99.90
14934;DHT22;7560;51.364;12.384;2024-03-25T12:11:32;10.70;99.90
14934;DHT22;7560;51.364;12.384;2024-03-25T12:16:33;10.80;99.90
14934;DHT22;7560;51.364;12.384;2024-03-25T12:21:34;11.30;99.90
14934;DHT22;7560;51.364;12.384;2024-03-25T12:26:35;11.10;99.90
14934;DHT22;7560;51.364;12.384;2024-03-25T12:31:36;11.60;99.90
14934;DHT22;7560;51.364;12.384;2024-03-25T12:36:37;11.50;99.90
14934;DHT22;7560;51.364;12.384;2024-03-25T12:41:38;11.70;99.90
14934;DHT22;7560;51.364;12.384;2024-03-25T12:46:39;11.70;99.90
14934;DHT22;7560;51.364;12.384;2024-03-25T12:51:40;11.50;99.90
14934;DHT22;7560;51.364;12.384;2024-03-25T12:56:40;11.70;99.90
14934;DHT22;7560;51.364;12.384;2024-03-25T13:01:43;11.60;99.90
14934;DHT22;7560;51.364;12.384;2024-03-25T13:06:44;11.20;99.90
14934;DHT22;7560;51.364;12.384;2024-03-25T13:11:45;11.30;99.90
14934;DHT22;7560;51.364;12.384;2024-03-25T13:16:46;11.00;99.90
14934;DHT22;7560;51.364;12.384;2024-03-25T13:21:46;11.30;99.90
14934;DHT22;7560;51.364;12.384;2024-03-25T13:26:48;11.90;99.90
14934;DHT22;7560;51.364;12.384;2024-03-25T13:31:49;12.20;99.90
14934;DHT22;7560;51.364;12.384;2024-03-25T13:36:50;11.70;99.90
14934;DHT22;7560;51.364;12.384;2024-03-25T13:41:50;11.40;99.90
14934;DHT22;7560;51.364;12.384;2024-03-25T13:46:51;11.30;99.90
14934;DHT22;7560;51.364;12.384;2024-03-25T13:51:58;11.30;99.90
14934;DHT22;7560;51.364;12.384;2024-03-25T13:56:59;11.50;99.90
14934;DHT22;7560;51.364;12.384;2024-03-25T14:02:00;11.60;99.90
14934;DHT22;7560;51.364;12.384;2024-03-25T14:07:01;11.70;99.90
14934;DHT22;7560;51.364;12.384;2024-03-25T14:12:02;11.70;99.90
14934;DHT22;7560;51.364;12.384;2024-03-25T14:17:04;11.60;99.90
14934;DHT22;7560;51.364;12.384;2024-03-25T14:22:05;11.90;99.90
14934;DHT22;7560;51.364;12.384;2024-03-25T14:27:06;11.90;99.90
14934;DHT22;7560;51.364;12.384;2024-03-25T14:32:08;11.90;99.90
14934;DHT22;7560;51.364;12.384;2024-03-25T14:37:09;11.40;99.90
14934;DHT22;7560;51.364;12.384;2024-03-25T14:42:10;11.50;99.90
14934;DHT22;7560;51.364;12.384;2024-03-25T14:47:11;11.40;99.90
14934;DHT22;7560;51.364;12.384;2024-03-25T14:52:12;11.20;99.90
14934;DHT22;7560;51.364;12.384;2024-03-25T14:57:13;11.90;99.90
14934;DHT22;7560;51.364;12.384;2024-03-25T15:02:14;12.00;99.90
14934;DHT22;7560;51.364;12.384;2024-03-25T15:07:15;12.50;99.90
14934;DHT22;7560;51.364;12.384;2024-03-25T15:12:16;12.00;99.90
14934;DHT22;7560;51.364;12.384;2024-03-25T15:17:17;11.80;99.90
14934;DHT22;7560;51.364;12.384;2024-03-25T15:22:17;11.80;99.90
14934;DHT22;7560;51.364;12.384;2024-03-25T15:27:18;11.70;99.90
14934;DHT22;7560;51.364;12.384;2024-03-25T15:32:20;11.70;99.90
14934;DHT22;7560;51.364;12.384;2024-03-25T15:37:21;11.80;99.90
14934;DHT22;7560;51.364;12.384;2024-03-25T15:42:22;11.80;99.90
14934;DHT22;7560;51.364;12.384;2024-03-25T15:47:23;12.00;99.90
14934;DHT22;7560;51.364;12.384;2024-03-25T15:52:23;11.90;99.90
14934;DHT22;7560;51.364;12.384;2024-03-25T15:57:24;11.50;99.90
14934;DHT22;7560;51.364;12.384;2024-03-25T16:02:25;11.60;99.90
14934;DHT22;7560;51.364;12.384;2024-03-25T16:07:26;12.80;99.90
14934;DHT22;7560;51.364;12.384;2024-03-25T16:12:28;11.90;99.90
14934;DHT22;7560;51.364;12.384;2024-03-25T16:17:29;11.90;99.90
14934;DHT22;7560;51.364;12.384;2024-03-25T16:22:30;11.80;99.90
14934;DHT22;7560;51.364;12.384;2024-03-25T16:27:32;11.10;99.90
14934;DHT22;7560;51.364;12.384;2024-03-25T16:32:33;10.40;99.90
14934;DHT22;7560;51.364;12.384;2024-03-25T16:37:34;10.40;99.90
14934;DHT22;7560;51.364;12.384;2024-03-25T16:42:35;10.40;99.90
14934;DHT22;7560;51.364;12.384;2024-03-25T16:47:36;10.50;99.90
14934;DHT22;7560;51.364;12.384;2024-03-25T16:52:37;10.70;99.90
14934;DHT22;7560;51.364;12.384;2024-03-25T16:57:38;10.80;99.90
14934;DHT22;7560;51.364;12.384;2024-03-25T17:02:39;10.60;99.90
14934;DHT22;7560;51.364;12.384;2024-03-25T17:07:40;10.50;99.90
14934;DHT22;7560;51.364;12.384;2024-03-25T17:12:41;10.50;99.90
14934;DHT22;7560;51.364;12.384;2024-03-25T17:17:42;10.60;99.90
14934;DHT22;7560;51.364;12.384;2024-03-25T17:22:42;10.60;99.90
14934;DHT22;7560;51.364;12.384;2024-03-25T17:27:43;10.20;99.90
14934;DHT22;7560;51.364;12.384;2024-03-25T17:32:47;10.10;99.90
14934;DHT22;7560;51.364;12.384;2024-03-25T17:37:48;9.70;99.90
14934;DHT22;7560;51.364;12.384;2024-03-25T17:42:49;9.40;99.90
14934;DHT22;7560;51.364;12.384;2024-03-25T17:47:51;9.10;99.90
14934;DHT22;7560;51.364;12.384;2024-03-25T17:52:51;8.90;99.90
14934;DHT22;7560;51.364;12.384;2024-03-25T17:57:52;8.80;99.90
14934;DHT22;7560;51.364;12.384;2024-03-25T18:02:53;8.70;99.90
14934;DHT22;7560;51.364;12.384;2024-03-25T18:07:54;8.60;99.90
14934;DHT22;7560;51.364;12.384;2024-03-25T18:12:55;8.60;99.90
14934;DHT22;7560;51.364;12.384;2024-03-25T18:17:56;8.60;99.90
14934;DHT22;7560;51.364;12.384;2024-03-25T18:22:59;8.50;99.90
14934;DHT22;7560;51.364;12.384;2024-03-25T18:27:59;8.50;99.90
14934;DHT22;7560;51.364;12.384;2024-03-25T18:33:05;8.40;99.90
14934;DHT22;7560;51.364;12.384;2024-03-25T18:38:06;8.40;99.90
14934;DHT22;7560;51.364;12.384;2024-03-25T18:43:07;8.20;99.90
14934;DHT22;7560;51.364;12.384;2024-03-25T18:48:08;8.00;99.90
14934;DHT22;7560;51.364;12.384;2024-03-25T18:53:09;7.90;99.90
14934;DHT22;7560;51.364;12.384;2024-03-25T18:58:10;7.80;99.90
14934;DHT22;7560;51.364;12.384;2024-03-25T19:03:10;7.70;99.90
14934;DHT22;7560;51.364;12.384;2024-03-25T19:08:11;7.60;99.90
14934;DHT22;7560;51.364;12.384;2024-03-25T19:13:12;7.60;99.90
14934;DHT22;7560;51.364;12.384;2024-03-25T19:18:13;7.50;99.90
14934;DHT22;7560;51.364;12.384;2024-03-25T19:23:14;7.40;99.90
14934;DHT22;7560;51.364;12.384;2024-03-25T19:28:16;7.40;99.90
14934;DHT22;7560;51.364;12.384;2024-03-25T19:33:17;7.30;99.90
14934;DHT22;7560;51.364;12.384;2024-03-25T19:38:18;7.10;99.90
14934;DHT22;7560;51.364;12.384;2024-03-25T19:43:19;7.20;99.90
14934;DHT22;7560;51.364;12.384;2024-03-25T19:48:20;7.00;99.90
14934;DHT22;7560;51.364;12.384;2024-03-25T19:53:21;6.90;99.90
14934;DHT22;7560;51.364;12.384;2024-03-25T19:58:22;6.90;99.90
14934;DHT22;7560;51.364;12.384;2024-03-25T20:03:22;6.80;99.90
14934;DHT22;7560;51.364;12.384;2024-03-25T20:08:23;6.80;99.90
14934;DHT22;7560;51.364;12.384;2024-03-25T20:13:24;6.70;99.90
14934;DHT22;7560;51.364;12.384;2024-03-25T20:18:25;6.70;99.90
14934;DHT22;7560;51.364;12.384;2024-03-25T20:23:26;6.60;99.90
14934;DHT22;7560;51.364;12.384;2024-03-25T20:28:27;6.50;99.90
14934;DHT22;7560;51.364;12.384;2024-03-25T20:33:28;6.40;99.90
14934;DHT22;7560;51.364;12.384;2024-03-25T20:38:30;6.40;99.90
14934;DHT22;7560;51.364;12.384;2024-03-25T20:43:31;6.30;99.90
14934;DHT22;7560;51.364;12.384;2024-03-25T20:48:32;6.30;99.90
14934;DHT22;7560;51.364;12.384;2024-03-25T20:53:33;6.20;99.90
14934;DHT22;7560;51.364;12.384;2024-03-25T20:58:34;6.10;99.90
14934;DHT22;7560;51.364;12.384;2024-03-25T21:03:35;6.00;99.90
14934;DHT22;7560;51.364;12.384;2024-03-25T21:08:36;5.90;99.90
14934;DHT22;7560;51.364;12.384;2024-03-25T21:13:37;5.80;99.90
14934;DHT22;7560;51.364;12.384;2024-03-25T21:18:37;5.70;99.90
14934;DHT22;7560;51.364;12.384;2024-03-25T21:23:38;5.70;99.90
14934;DHT22;7560;51.364;12.384;2024-03-25T21:28:39;5.60;99.90
14934;DHT22;7560;51.364;12.384;2024-03-25T21:33:40;5.60;99.90
14934;DHT22;7560;51.364;12.384;2024-03-25T21:38:42;5.50;99.90
14934;DHT22;7560;51.364;12.384;2024-03-25T21:43:43;5.40;99.90
14934;DHT22;7560;51.364;12.384;2024-03-25T21:48:44;5.40;99.90
14934;DHT22;7560;51.364;12.384;2024-03-25T21:53:44;5.40;99.90
14934;DHT22;7560;51.364;12.384;2024-03-25T21:58:45;5.40;99.90
14934;DHT22;7560;51.364;12.384;2024-03-25T22:03:47;5.30;99.90
14934;DHT22;7560;51.364;12.384;2024-03-25T22:08:47;5.20;99.90
14934;DHT22;7560;51.364;12.384;2024-03-25T22:13:49;5.20;99.90
14934;DHT22;7560;51.364;12.384;2024-03-25T22:18:50;5.10;99.90
14934;DHT22;7560;51.364;12.384;2024-03-25T22:23:51;5.10;99.90
14934;DHT22;7560;51.364;12.384;2024-03-25T22:28:51;5.10;99.90
14934;DHT22;7560;51.364;12.384;2024-03-25T22:33:52;5.00;99.90
14934;DHT22;7560;51.364;12.384;2024-03-25T22:38:53;5.00;99.90
14934;DHT22;7560;51.364;12.384;2024-03-25T22:43:54;4.90;99.90
14934;DHT22;7560;51.364;12.384;2024-03-25T22:48:55;4.70;99.90
14934;DHT22;7560;51.364;12.384;2024-03-25T22:53:55;4.70;99.90
14934;DHT22;7560;51.364;12.384;2024-03-25T22:58:56;4.60;99.90
14934;DHT22;7560;51.364;12.384;2024-03-25T23:03:57;4.60;99.90
14934;DHT22;7560;51.364;12.384;2024-03-25T23:08:58;4.60;99.90
14934;DHT22;7560;51.364;12.384;2024-03-25T23:13:59;4.50;99.90
14934;DHT22;7560;51.364;12.384;2024-03-25T23:18:59;4.40;99.90
14934;DHT22;7560;51.364;12.384;2024-03-25T23:24:00;4.40;99.90
14934;DHT22;7560;51.364;12.384;2024-03-25T23:29:01;4.30;99.90
14934;DHT22;7560;51.364;12.384;2024-03-25T23:34:02;4.20;99.90
14934;DHT22;7560;51.364;12.384;2024-03-25T23:39:03;4.30;99.90
14934;DHT22;7560;51.364;12.384;2024-03-25T23:44:04;4.20;99.90
14934;DHT22;7560;51.364;12.384;2024-03-25T23:49:05;4.10;99.90
14934;DHT22;7560;51.364;12.384;2024-03-25T23:54:06;4.10;99.90
14934;DHT22;7560;51.364;12.384;2024-03-25T23:59:06;4.00;99.90
